Gillam Airport
CYGX : rendu visible

Aérodrome :











RETROUVEZ-NOUS SUR...

 
LOGIN :

S'inscrire | Disclaimer

   EN    FR    IT 

 









Légende :    VFR   VFR Marginal   IFR   IFR Intensif   IFR Très Intensif
Visi : 
Plafond : 
>= 8 km
>= 3000ft
5 à 8 km
1000 à 3000 ft
1500m à 5 km
500 à 1000 ft
800 à 1500m
200 à 500 ft
< 800m
< 200 ft
Symboles :   Orages  Brouillard  Fortes neiges  Fortes précipitations  Vent > 20 kt






- Altitude de l'aérodrome : 476 ft
- Code IATA : YGX


CYGX - Gillam

DERNIER METAR :
  • 100700Z 27010KT 15SM SKC M31/M35 A2989 RMK SLP149

METARs EXPIRÉS :
  • 100600Z 27010G15KT 15SM SKC M32/M35 A2991 RMK SLP156
  • 100500Z 27011KT 15SM SKC M32/M35 A2992 RMK SLP160

TAF TAF CYGX
Valide du 10 à 07h jusqu'au 10 à 19h UTC


100638Z 1007/1019 27010G20KT P6SM SKC
FM101100 28010KT P6SM SCT050
TEMPO 1011/1015 P6SM -SN BKN040
FM101500 28010KT P6SM SCT030
TEMPO 1015/1018 P6SM -SN BKN020
FM101800 28012KT P6SM BKN050
TEMPO 1018/1019 P6SM -SN OVC030 RMK NXT FCST BY 101300Z



MET'MAP, la Météo Aéronautique d'un coup d'oeil ! - Copyright ORBIFLY Décembre 2007 - Disclaimer

ORBIFLY MET'MAP TEAM :

Programmation & Développement : Alexandra Zaïnal
Sur une idée originale de : Baudouin d'Aumeries
Assistance à la programmation : Marc-Olivier Méhu
Soutien technique & logistique : Manuel Goepfert

Contact : metmap@orbifly.com




SOURCES & CREDITS :

   NOAA       Earth
Advisory